KH6HZ-W3 New Bedford MA US current weather conditions

sailwx.info

Wind from 270 at 14 knots gusting 16

Air temperature 26.7° C
Dewpoint 23.7° C

Last reported at 2020-Aug-10 19:10 UTC.
Time now 2020-Aug-10 19:34 UTC

Location: N 41°36' W 070°55'.
View on Google Maps.

See reports from other nearby stations

  
Tides and Currents Weather Stations Pressure Air Temp Water Temp Dewpoint Dewpoint Depression Visibility Wind Speed Wind Dir Waves Ship Positions
date/time (UTC)wind fromknots sea level pressurealtimeterstation pressurevisibilityair tempwater tempwave heightnotes
2020-Aug-10 19:10 270 14 gusting 16 26.7
2020-Aug-10 19:05 270 15 gusting 16 26.7
2020-Aug-10 19:00 270 14 gusting 16 26.7
2020-Aug-10 18:55 270 15 gusting 18 26.1
2020-Aug-10 18:50 270 15 gusting 16 26.1
2020-Aug-10 18:45 270 14 gusting 14 26.1
2020-Aug-10 18:40 270 12 gusting 14 26.1
2020-Aug-10 18:35 270 14 gusting 14 26.1
2020-Aug-10 18:30 270 13 gusting 14 26.1
2020-Aug-10 18:25 270 13 gusting 13 26.1
2020-Aug-10 18:20 270 14 gusting 14 26.1
2020-Aug-10 18:15 270 14 gusting 15 25.6
2020-Aug-10 18:10 270 13 gusting 14 25.6
2020-Aug-10 18:05 270 13 gusting 13 25.6
2020-Aug-10 18:00 270 14 gusting 15 25.6
2020-Aug-10 17:55 248 13 gusting 14 25.6
2020-Aug-10 17:50 270 14 gusting 14 25.6
2020-Aug-10 17:45 270 14 gusting 14 25.6
2020-Aug-10 17:40 270 13 gusting 13 25.6
2020-Aug-10 17:35 270 13 gusting 13 25.6
2020-Aug-10 17:30 270 14 gusting 15 25.6
2020-Aug-10 17:25 248 12 gusting 13 25.6
2020-Aug-10 17:20 270 13 gusting 14 25.0
2020-Aug-10 17:15 270 13 gusting 14 25.0
2020-Aug-10 17:10 270 12 gusting 14 25.0
2020-Aug-10 17:05 270 14 gusting 14 25.0
2020-Aug-10 17:00 270 13 gusting 14 25.0
2020-Aug-10 16:55 270 13 gusting 14 25.0
2020-Aug-10 16:40 248 13 gusting 14 25.6
2020-Aug-10 16:35 270 13 gusting 13 25.6
2020-Aug-10 16:30 270 13 gusting 14 25.6
2020-Aug-10 16:25 270 13 gusting 13 25.6
2020-Aug-10 16:20 270 13 gusting 13 25.6
2020-Aug-10 16:15 248 12 gusting 13 25.0
2020-Aug-10 16:10 248 13 gusting 13 25.0
2020-Aug-10 16:05 248 11 gusting 13 25.6
2020-Aug-10 16:00 248 13 gusting 13 25.6
2020-Aug-10 15:55 248 13 gusting 13 25.6
2020-Aug-10 15:50 248 11 gusting 13 25.6
2020-Aug-10 15:45 248 12 gusting 13 25.0
2020-Aug-10 15:40 270 13 gusting 13 25.0
2020-Aug-10 15:35 248 12 gusting 12 25.0
2020-Aug-10 15:30 270 12 gusting 12 25.6
2020-Aug-10 15:25 270 9 gusting 9 25.6
2020-Aug-10 15:20 248 9 gusting 10 25.0
2020-Aug-10 15:15 248 10 gusting 10 25.0
2020-Aug-10 15:10 248 10 gusting 10 25.0
2020-Aug-10 15:05 270 9 gusting 10 25.0
2020-Aug-10 15:00 248 12 gusting 12 24.4
2020-Aug-10 14:55 248 10 gusting 12 24.4
2020-Aug-10 14:50 248 12 gusting 13 24.4
2020-Aug-10 14:45 248 12 gusting 12 24.4
2020-Aug-10 14:40 225 11 gusting 13 23.9
2020-Aug-10 14:35 248 11 gusting 12 23.9
2020-Aug-10 14:30 248 10 gusting 10 24.4
2020-Aug-10 14:25 248 9 gusting 10 23.9
2020-Aug-10 14:20 225 10 gusting 11 23.9
2020-Aug-10 14:15 248 9 gusting 9 23.9
2020-Aug-10 14:10 248 10 gusting 10 23.9
2020-Aug-10 14:05 225 9 gusting 10 23.9
2020-Aug-10 14:00 248 10 gusting 12 23.9
2020-Aug-10 13:55 248 11 gusting 11 23.9
2020-Aug-10 13:50 225 10 gusting 10 23.9
2020-Aug-10 13:45 225 10 gusting 10 23.9
2020-Aug-10 13:40 225 8 gusting 8 23.9
2020-Aug-10 13:35 225 9 gusting 9 23.9
2020-Aug-10 13:30 225 8 gusting 8 24.4
2020-Aug-10 13:25 225 8 gusting 8 24.4
2020-Aug-10 13:20 225 24.4
2020-Aug-10 13:15 248 24.4
2020-Aug-10 13:10 248 24.4
2020-Aug-10 13:05 248 6 gusting 6 24.4
2020-Aug-10 13:00 248 24.4
2020-Aug-10 12:55 270 24.4
2020-Aug-10 12:50 270 24.4
2020-Aug-10 12:45 270 24.4
2020-Aug-10 12:40 248 24.4
2020-Aug-10 12:35 270 23.9
2020-Aug-10 12:30 270 5 gusting 6 23.9
2020-Aug-10 12:25 270 6 gusting 6 23.9
2020-Aug-10 12:20 270 6 gusting 7 23.9
2020-Aug-10 12:15 270 5 gusting 6 23.9
2020-Aug-10 12:10 270 6 gusting 6 23.9
2020-Aug-10 12:05 270 5 gusting 6 23.9
2020-Aug-10 12:00 270 6 gusting 6 23.9
2020-Aug-10 11:55 270 5 gusting 5 23.9
2020-Aug-10 11:50 270 4 gusting 5 23.3
2020-Aug-10 11:45 270 6 gusting 7 23.3
2020-Aug-10 11:40 270 6 gusting 6 23.3
2020-Aug-10 11:35 270 3 gusting 6 23.3
2020-Aug-10 11:30 270 5 gusting 6 23.3
2020-Aug-10 11:25 293 5 gusting 6 23.3
2020-Aug-10 11:20 270 4 gusting 6 23.3
2020-Aug-10 11:15 293 5 gusting 6 23.3
2020-Aug-10 11:10 293 5 gusting 6 23.3
2020-Aug-10 11:05 270 5 gusting 7 22.8
2020-Aug-10 11:00 293 6 gusting 8 22.8
2020-Aug-10 10:55 270 7 gusting 8 22.8
2020-Aug-10 10:50 270 8 gusting 8 22.8
2020-Aug-10 10:45 293 7 gusting 7 22.8
2020-Aug-10 10:40 270 7 gusting 7 22.8
2020-Aug-10 10:35 270 6 gusting 7 22.8
2020-Aug-10 10:30 270 7 gusting 7 22.8
2020-Aug-10 10:25 270 6 gusting 6 22.8
2020-Aug-10 10:20 270 7 gusting 7 22.8
2020-Aug-10 10:15 270 6 gusting 7 22.8
2020-Aug-10 10:10 270 6 gusting 6 22.8
2020-Aug-10 10:05 293 6 gusting 7 22.8
2020-Aug-10 10:00 270 6 gusting 7 22.8
2020-Aug-10 09:55 270 7 gusting 8 22.8
2020-Aug-10 09:50 293 8 gusting 8 22.8
2020-Aug-10 09:45 293 8 gusting 9 22.8
2020-Aug-10 09:40 293 8 gusting 8 22.8
2020-Aug-10 09:35 293 9 gusting 9 23.3
2020-Aug-10 09:30 270 9 gusting 10 22.8
2020-Aug-10 09:25 293 12 gusting 12 22.8
2020-Aug-10 09:20 270 10 gusting 11 22.8
2020-Aug-10 09:10 270 10 gusting 13 22.8
2020-Aug-10 09:05 293 10 gusting 12 22.8
2020-Aug-10 09:00 293 9 gusting 10 22.8
2020-Aug-10 08:55 293 10 gusting 12 22.8
2020-Aug-10 08:50 293 9 gusting 12 22.8
2020-Aug-10 08:45 293 10 gusting 11 22.8
2020-Aug-10 08:40 270 12 gusting 12 22.8
2020-Aug-10 08:35 293 12 gusting 12 22.8
2020-Aug-10 08:30 293 12 gusting 12 22.8
2020-Aug-10 08:25 270 10 gusting 12 22.8
2020-Aug-10 08:20 270 8 gusting 13 22.8
2020-Aug-10 08:15 270 8 gusting 11 22.8
2020-Aug-10 08:10 293 9 gusting 12 22.8
2020-Aug-10 08:05 270 10 gusting 12 22.8
2020-Aug-10 08:00 270 10 gusting 10 22.8
2020-Aug-10 07:55 270 9 gusting 13 22.8
2020-Aug-10 07:50 270 8 gusting 12 22.8
2020-Aug-10 07:45 270 10 gusting 11 22.8
2020-Aug-10 07:40 293 9 gusting 12 22.8
2020-Aug-10 07:35 270 10 gusting 11 22.8
2020-Aug-10 07:30 293 10 gusting 13 22.8
2020-Aug-10 07:25 293 9 gusting 9 22.8
2020-Aug-10 07:20 293 10 gusting 10 22.8
2020-Aug-10 07:15 293 10 gusting 10 22.8
2020-Aug-10 07:10 293 10 gusting 11 22.8
2020-Aug-10 07:05 293 9 gusting 11 22.8
2020-Aug-10 07:00 270 10 gusting 10 22.8
2020-Aug-10 06:55 293 10 gusting 10 22.8
2020-Aug-10 06:50 270 10 gusting 10 22.8
2020-Aug-10 06:45 270 9 gusting 10 22.8
2020-Aug-10 06:40 293 9 gusting 10 22.8
2020-Aug-10 06:35 293 12 gusting 12 22.8
2020-Aug-10 06:30 270 9 gusting 10 22.8
2020-Aug-10 06:25 293 8 gusting 9 22.8
2020-Aug-10 06:20 270 10 gusting 10 22.8
2020-Aug-10 06:15 293 10 gusting 11 22.8
2020-Aug-10 06:10 293 9 gusting 12 22.8
2020-Aug-10 06:05 270 8 gusting 11 22.8
2020-Aug-10 06:00 293 9 gusting 12 22.8
2020-Aug-10 05:55 293 8 gusting 9 22.8
2020-Aug-10 05:50 270 10 gusting 12 22.8
2020-Aug-10 05:45 270 11 gusting 11 22.8
2020-Aug-10 05:40 270 10 gusting 10 23.3
2020-Aug-10 05:35 270 12 gusting 12 22.8
2020-Aug-10 05:30 270 9 gusting 11 23.3
2020-Aug-10 05:25 293 8 gusting 11 22.8
2020-Aug-10 05:20 270 10 gusting 10 22.8
2020-Aug-10 05:15 270 8 gusting 9 22.8
2020-Aug-10 05:10 270 11 gusting 11 23.3
2020-Aug-10 05:05 293 7 gusting 9 22.8
2020-Aug-10 05:00 293 9 gusting 9 23.3
2020-Aug-10 04:55 270 8 gusting 10 22.8
2020-Aug-10 04:50 270 8 gusting 10 23.3
2020-Aug-10 04:45 293 8 gusting 10 23.3
2020-Aug-10 04:40 270 10 gusting 12 23.3
2020-Aug-10 04:35 293 11 gusting 12 23.3
2020-Aug-10 04:30 270 10 gusting 10 23.3
2020-Aug-10 04:25 270 9 gusting 11 23.3
2020-Aug-10 04:20 270 9 gusting 11 23.3
2020-Aug-10 04:15 270 9 gusting 12 23.3
2020-Aug-10 04:10 270 8 gusting 10 23.3
2020-Aug-10 04:05 270 10 gusting 10 23.3
2020-Aug-10 04:00 270 9 gusting 10 23.3
2020-Aug-10 03:55 270 11 gusting 11 23.3
2020-Aug-10 03:50 293 10 gusting 13 23.3
2020-Aug-10 03:45 270 10 gusting 10 23.3
2020-Aug-10 03:40 270 8 gusting 11 23.3
2020-Aug-10 03:35 270 10 gusting 11 23.3
2020-Aug-10 03:30 270 10 gusting 12 23.3
2020-Aug-10 03:25 270 11 gusting 13 23.3
2020-Aug-10 03:20 270 13 gusting 13 23.3
2020-Aug-10 03:15 270 12 gusting 13 23.3
2020-Aug-10 03:10 270 11 gusting 12 23.3
2020-Aug-10 03:05 270 10 gusting 11 23.3
2020-Aug-10 03:00 293 10 gusting 12 23.3
2020-Aug-10 02:55 270 13 gusting 13 23.3
2020-Aug-10 02:50 270 9 gusting 12 23.3
2020-Aug-10 02:45 270 9 gusting 10 23.3
2020-Aug-10 02:40 270 9 gusting 10 23.3
2020-Aug-10 02:35 270 9 gusting 10 23.3
2020-Aug-10 02:30 270 10 gusting 10 23.3
2020-Aug-10 02:25 270 9 gusting 9 23.3
2020-Aug-10 02:20 270 8 gusting 13 23.3
2020-Aug-10 02:15 270 8 gusting 10 23.3
2020-Aug-10 02:10 270 8 gusting 10 23.3
2020-Aug-10 02:05 270 9 gusting 9 23.3
2020-Aug-10 02:00 270 10 gusting 11 23.3
2020-Aug-10 01:55 270 8 gusting 9 23.3
2020-Aug-10 01:50 293 7 gusting 10 23.3
2020-Aug-10 01:45 270 7 gusting 10 23.3
2020-Aug-10 01:40 270 11 gusting 12 23.3
2020-Aug-10 01:35 293 9 gusting 9 23.3
2020-Aug-10 01:30 293 9 gusting 10 23.3
2020-Aug-10 01:25 293 12 gusting 12 23.3
2020-Aug-10 01:20 270 10 gusting 10 23.3
2020-Aug-10 01:15 293 10 gusting 12 23.3
2020-Aug-10 01:10 270 10 gusting 13 23.3
2020-Aug-10 01:05 270 11 gusting 12 23.3
2020-Aug-10 01:00 270 10 gusting 10 23.3
2020-Aug-10 00:55 270 9 gusting 9 23.3
2020-Aug-10 00:50 270 8 gusting 11 23.3
2020-Aug-10 00:40 270 10 gusting 10 23.3
2020-Aug-10 00:35 270 9 gusting 9 23.3
2020-Aug-10 00:30 270 10 gusting 10 23.3
2020-Aug-10 00:25 270 12 gusting 12 23.3
2020-Aug-10 00:20 270 10 gusting 13 23.3
2020-Aug-10 00:15 270 12 gusting 12 23.3
2020-Aug-10 00:10 270 9 gusting 12 23.3
2020-Aug-10 00:05 270 12 gusting 12 23.3
2020-Aug-10 00:00 270 10 gusting 10 23.3
2020-Aug-09 23:55 270 10 gusting 11 23.3
2020-Aug-09 23:50 270 9 gusting 11 23.3
2020-Aug-09 23:45 270 8 gusting 10 23.3
2020-Aug-09 23:40 270 9 gusting 12 23.9
2020-Aug-09 23:35 270 8 gusting 12 23.9
2020-Aug-09 23:30 270 10 gusting 10 23.9
2020-Aug-09 23:25 270 10 gusting 12 23.9
2020-Aug-09 23:20 270 12 gusting 13 23.9
2020-Aug-09 23:10 270 10 gusting 12 23.9
2020-Aug-09 23:05 270 10 gusting 12 24.4
2020-Aug-09 23:00 270 10 gusting 13 23.9
2020-Aug-09 22:55 270 11 gusting 11 24.4
2020-Aug-09 22:50 270 10 gusting 12 24.4
2020-Aug-09 22:45 270 10 gusting 12 24.4
2020-Aug-09 22:40 270 11 gusting 11 24.4
2020-Aug-09 22:35 270 11 gusting 13 24.4
2020-Aug-09 22:30 270 9 gusting 12 24.4
2020-Aug-09 22:25 270 9 gusting 12 24.4
2020-Aug-09 22:20 270 11 gusting 13 25.0
2020-Aug-09 22:15 270 13 gusting 13 25.0
2020-Aug-09 22:10 270 13 gusting 13 24.4
2020-Aug-09 22:05 270 10 gusting 13 25.0
2020-Aug-09 22:00 270 11 gusting 12 25.0
2020-Aug-09 21:55 270 10 gusting 11 25.0
2020-Aug-09 21:50 270 11 gusting 14 24.4
2020-Aug-09 21:45 270 13 gusting 15 25.0
2020-Aug-09 21:40 270 13 gusting 15 25.0
2020-Aug-09 21:35 270 13 gusting 13 25.0
2020-Aug-09 21:30 270 12 gusting 16 25.0
2020-Aug-09 21:25 270 10 gusting 13 25.0
2020-Aug-09 21:20 270 13 gusting 14 24.4
2020-Aug-09 21:15 270 13 gusting 13 24.4
2020-Aug-09 21:10 270 14 gusting 14 25.0
2020-Aug-09 21:05 270 13 gusting 13 25.0
2020-Aug-09 21:00 270 13 gusting 14 25.0
2020-Aug-09 20:50 270 15 gusting 15 25.0
2020-Aug-09 20:45 270 13 gusting 15 25.0
2020-Aug-09 20:40 270 14 gusting 14 25.0
2020-Aug-09 20:35 270 13 gusting 15 25.0
2020-Aug-09 20:30 270 14 gusting 15 25.0
2020-Aug-09 20:25 270 15 gusting 15 25.0
2020-Aug-09 20:20 270 13 gusting 15 24.4
2020-Aug-09 20:15 270 15 gusting 15 24.4
2020-Aug-09 20:10 270 13 gusting 14 24.4
2020-Aug-09 20:05 270 13 gusting 14 24.4
2020-Aug-09 20:00 270 13 gusting 16 25.0
2020-Aug-09 19:55 270 13 gusting 14 25.0
2020-Aug-09 19:50 270 13 gusting 13 25.0
2020-Aug-09 19:45 270 13 gusting 13 24.4
2020-Aug-09 19:40 270 15 gusting 15 25.0
2020-Aug-09 19:35 270 14 gusting 14 25.0
2020-Aug-09 19:30 270 12 gusting 14 24.4
2020-Aug-09 19:25 270 14 gusting 14 24.4
2020-Aug-09 19:20 270 14 gusting 14 24.4
2020-Aug-09 19:15 248 13 gusting 13 24.4
2020-Aug-09 19:10 270 14 gusting 14 25.0
2020-Aug-09 19:05 270 13 gusting 13 24.4
2020-Aug-09 19:00 270 13 gusting 14 24.4
2020-Aug-09 18:55 248 13 gusting 14 24.4
2020-Aug-09 18:50 270 13 gusting 14 24.4
2020-Aug-09 18:45 270 14 gusting 14 25.0
2020-Aug-09 18:40 248 13 gusting 13 24.4
2020-Aug-09 18:35 270 13 gusting 13 24.4
2020-Aug-09 18:30 270 13 gusting 15 24.4
2020-Aug-09 18:25 270 15 gusting 15 24.4
2020-Aug-09 18:20 270 13 gusting 16 24.4
2020-Aug-09 18:15 270 15 gusting 15 24.4
2020-Aug-09 18:10 270 14 gusting 15 24.4
2020-Aug-09 18:05 248 14 gusting 15 24.4
2020-Aug-09 18:00 270 15 gusting 16 25.0
2020-Aug-09 17:55 270 14 gusting 15 25.0
2020-Aug-09 17:50 270 13 gusting 13 25.0
2020-Aug-09 17:45 270 13 gusting 13 25.0
2020-Aug-09 17:40 270 13 gusting 13 24.4
2020-Aug-09 17:35 270 12 gusting 13 24.4
2020-Aug-09 17:30 248 13 gusting 13 24.4
2020-Aug-09 17:25 270 13 gusting 13 24.4
2020-Aug-09 17:20 248 11 gusting 13 24.4
2020-Aug-09 17:15 248 13 gusting 13 24.4
2020-Aug-09 17:10 248 11 gusting 12 24.4
2020-Aug-09 17:05 270 12 gusting 12 24.4
2020-Aug-09 17:00 270 12 gusting 12 24.4
2020-Aug-09 16:55 270 12 gusting 13 24.4
2020-Aug-09 16:50 270 13 gusting 13 24.4
2020-Aug-09 16:45 248 13 gusting 13 24.4
2020-Aug-09 16:40 248 13 gusting 13 24.4
2020-Aug-09 16:35 248 12 gusting 13 24.4
2020-Aug-09 16:30 248 12 gusting 12 24.4
2020-Aug-09 16:25 248 12 gusting 13 24.4
2020-Aug-09 16:20 270 12 gusting 12 24.4
2020-Aug-09 16:15 248 10 gusting 12 24.4
2020-Aug-09 16:10 248 10 gusting 10 24.4
2020-Aug-09 16:05 248 9 gusting 11 24.4
2020-Aug-09 16:00 270 8 gusting 10 24.4
2020-Aug-09 15:55 248 10 gusting 12 24.4
2020-Aug-09 15:50 270 11 gusting 11 24.4
2020-Aug-09 15:45 248 8 gusting 11 23.9
2020-Aug-09 15:40 270 11 gusting 11 23.9
2020-Aug-09 15:35 270 12 gusting 12 23.9
2020-Aug-09 15:30 248 11 gusting 12 23.9
2020-Aug-09 15:25 248 9 gusting 10 23.9
2020-Aug-09 15:20 248 12 gusting 12 23.9
2020-Aug-09 15:15 270 10 gusting 12 23.9
2020-Aug-09 15:10 248 10 gusting 12 23.9
2020-Aug-09 15:05 270 9 gusting 13 23.9
2020-Aug-09 15:00 248 12 gusting 13 23.9
2020-Aug-09 14:55 248 12 gusting 13 23.9
2020-Aug-09 14:50 248 12 gusting 13 23.9
2020-Aug-09 14:45 248 11 gusting 12 24.4
2020-Aug-09 14:40 248 10 gusting 10 24.4
2020-Aug-09 14:35 248 8 gusting 8 24.4
2020-Aug-09 14:30 248 8 gusting 9 24.4
2020-Aug-09 14:25 225 8 gusting 10 24.4
2020-Aug-09 14:20 248 6 gusting 6 24.4
2020-Aug-09 14:15 248 6 gusting 7 24.4
2020-Aug-09 14:10 270 5 gusting 6 24.4
2020-Aug-09 14:05 248 4 gusting 5 24.4
2020-Aug-09 14:00 225 5 gusting 6 24.4
2020-Aug-09 13:55 270 5 gusting 5 24.4
2020-Aug-09 13:50 270 5 gusting 6 23.9
2020-Aug-09 13:45 270 6 gusting 6 23.9
2020-Aug-09 13:40 270 6 gusting 6 23.9
2020-Aug-09 13:35 293 6 gusting 8 23.9
2020-Aug-09 13:30 270 5 gusting 6 23.9
2020-Aug-09 13:25 270 6 gusting 6 23.9
2020-Aug-09 13:20 270 6 gusting 6 23.3
2020-Aug-09 13:15 270 4 gusting 5 23.3
2020-Aug-09 13:10 293 5 gusting 6 23.3
2020-Aug-09 13:05 293 7 gusting 7 23.3
2020-Aug-09 13:00 270 6 gusting 7 23.3
2020-Aug-09 12:55 270 8 gusting 8 23.3
2020-Aug-09 12:50 270 6 gusting 6 22.8
2020-Aug-09 12:45 270 7 gusting 7 22.8
2020-Aug-09 12:40 270 6 gusting 8 22.8
2020-Aug-09 12:35 270 6 gusting 7 22.8
2020-Aug-09 12:30 293 8 gusting 8 22.8
2020-Aug-09 12:25 293 6 gusting 7 22.8
2020-Aug-09 12:20 293 6 gusting 6 22.2
2020-Aug-09 12:15 270 6 gusting 7 22.2
2020-Aug-09 12:10 293 7 gusting 9 22.2
2020-Aug-09 12:05 293 6 gusting 6 22.2
2020-Aug-09 12:00 315 6 gusting 6 22.2
2020-Aug-09 11:55 315 6 gusting 6 21.7
2020-Aug-09 11:50 293 5 gusting 7 21.7
2020-Aug-09 11:45 315 9 gusting 9 21.7
2020-Aug-09 11:40 293 7 gusting 7 21.7
2020-Aug-09 11:35 315 6 gusting 8 21.7
2020-Aug-09 11:30 293 7 gusting 8 21.7
2020-Aug-09 11:25 293 6 gusting 6 21.7
2020-Aug-09 11:20 293 6 gusting 6 21.7
2020-Aug-09 11:15 293 7 gusting 7 21.7
2020-Aug-09 11:10 293 5 gusting 7 21.7
2020-Aug-09 11:05 270 6 gusting 7 21.7
2020-Aug-09 11:00 293 21.7
2020-Aug-09 10:55 293 21.7
2020-Aug-09 10:50 293 21.7
2020-Aug-09 10:45 315 21.7
2020-Aug-09 10:40 315 21.1
2020-Aug-09 10:35 293 21.1
2020-Aug-09 10:30 293 21.1
2020-Aug-09 10:25 270 21.1
2020-Aug-09 10:20 293 21.1
2020-Aug-09 10:15 293 21.1
2020-Aug-09 10:10 293 21.1
2020-Aug-09 10:05 293 21.1
2020-Aug-09 10:00 270 21.1
2020-Aug-09 09:55 270 21.1
2020-Aug-09 09:50 293 21.1
2020-Aug-09 09:45 270 21.1
2020-Aug-09 09:40 293 21.1
2020-Aug-09 09:35 293 21.1
2020-Aug-09 09:30 315 21.1
2020-Aug-09 09:25 338 21.1
2020-Aug-09 09:20 293 21.1
2020-Aug-09 09:15 293 21.1
2020-Aug-09 09:10 293 21.1
2020-Aug-09 09:05 293 21.1
2020-Aug-09 09:00 293 21.1
2020-Aug-09 08:55 293 21.1
2020-Aug-09 08:50 293 21.1
2020-Aug-09 08:45 293 1 gusting 3 21.1
2020-Aug-09 08:40 293 3 gusting 4 21.1
2020-Aug-09 08:30 293 5 gusting 5 21.1
2020-Aug-09 08:25 293 4 gusting 5 21.1
2020-Aug-09 08:20 293 3 gusting 4 21.1
2020-Aug-09 08:15 293 4 gusting 5 21.1
2020-Aug-09 08:10 293 4 gusting 5 21.7
2020-Aug-09 08:05 270 5 gusting 6 21.7
2020-Aug-09 08:00 270 6 gusting 6 21.7
2020-Aug-09 07:55 270 6 gusting 6 21.7
2020-Aug-09 07:50 270 6 gusting 6 21.7
2020-Aug-09 07:45 270 5 gusting 6 21.7
2020-Aug-09 07:40 270 5 gusting 6 21.7
2020-Aug-09 07:35 293 5 gusting 6 21.7
2020-Aug-09 07:30 270 6 gusting 6 21.7
2020-Aug-09 07:25 270 5 gusting 6 21.7
2020-Aug-09 07:20 293 5 gusting 6 21.7
2020-Aug-09 07:15 293 5 gusting 6 21.7
2020-Aug-09 07:10 293 6 gusting 6 21.7
2020-Aug-09 07:05 293 6 gusting 6 21.7
2020-Aug-09 07:00 270 6 gusting 6 21.7
2020-Aug-09 06:55 270 6 gusting 6 21.7
2020-Aug-09 06:50 270 6 gusting 6 21.7
2020-Aug-09 06:45 293 6 gusting 6 21.7
2020-Aug-09 06:40 270 6 gusting 7 21.7
2020-Aug-09 06:35 270 6 gusting 7 21.7
2020-Aug-09 06:30 270 6 gusting 6 21.7
2020-Aug-09 06:25 293 6 gusting 6 21.7
2020-Aug-09 06:20 293 6 gusting 6 21.7
2020-Aug-09 06:15 293 6 gusting 6 21.7
2020-Aug-09 06:10 293 6 gusting 7 21.7
2020-Aug-09 06:05 293 6 gusting 7 21.7
2020-Aug-09 06:00 293 5 gusting 6 21.7
2020-Aug-09 05:55 270 4 gusting 6 21.7
2020-Aug-09 05:50 293 5 gusting 6 21.7
2020-Aug-09 05:45 270 6 gusting 6 21.7
2020-Aug-09 05:40 293 6 gusting 6 21.7
2020-Aug-09 05:35 270 6 gusting 6 21.7
2020-Aug-09 05:30 293 6 gusting 7 21.7
2020-Aug-09 05:25 293 6 gusting 7 21.7
2020-Aug-09 05:20 293 6 gusting 8 21.7
2020-Aug-09 05:15 270 7 gusting 7 21.7
2020-Aug-09 05:10 270 7 gusting 7 21.7
2020-Aug-09 05:05 270 6 gusting 7 21.7
2020-Aug-09 05:00 270 6 gusting 6 21.7
2020-Aug-09 04:55 270 6 gusting 8 21.7
2020-Aug-09 04:50 270 6 gusting 7 22.2
2020-Aug-09 04:45 270 6 gusting 6 21.7
2020-Aug-09 04:40 270 7 gusting 8 21.7
2020-Aug-09 04:35 270 6 gusting 7 21.7
2020-Aug-09 04:30 270 6 gusting 7 21.7
2020-Aug-09 04:10 293 6 gusting 7 21.7
2020-Aug-09 04:05 270 6 gusting 6 22.2
2020-Aug-09 04:00 270 5 gusting 6 22.2
2020-Aug-09 03:55 293 5 gusting 6 21.7
2020-Aug-09 03:50 270 8 gusting 8 21.7
2020-Aug-09 03:45 270 8 gusting 8 21.7
2020-Aug-09 03:40 270 6 gusting 6 21.7
2020-Aug-09 03:35 270 5 gusting 7 21.7
2020-Aug-09 03:30 248 6 gusting 6 21.7
2020-Aug-09 03:25 270 7 gusting 7 21.7
2020-Aug-09 03:20 270 6 gusting 6 21.7
2020-Aug-09 03:15 270 6 gusting 9 21.7
2020-Aug-09 03:10 248 6 gusting 9 21.7
2020-Aug-09 03:05 270 7 gusting 8 22.2
2020-Aug-09 03:00 270 6 gusting 8 22.2
2020-Aug-09 02:55 248 6 gusting 6 21.7
2020-Aug-09 02:50 225 5 gusting 6 21.7
2020-Aug-09 02:45 225 6 gusting 10 21.7
2020-Aug-09 02:40 248 8 gusting 10 21.7
2020-Aug-09 02:35 248 7 gusting 9 22.2
2020-Aug-09 02:30 248 6 gusting 8 22.2
2020-Aug-09 02:20 248 6 gusting 6 22.2
2020-Aug-09 02:15 270 6 gusting 6 22.2
2020-Aug-09 02:10 270 7 gusting 8 22.2
2020-Aug-09 02:05 270 9 gusting 9 22.2
2020-Aug-09 02:00 270 9 gusting 10 22.2
2020-Aug-09 01:55 225 9 gusting 10 22.2
2020-Aug-09 01:50 225 9 gusting 9 22.2
2020-Aug-09 01:45 225 9 gusting 10 22.2
2020-Aug-09 01:40 248 7 gusting 8 22.2
2020-Aug-09 01:35 225 8 gusting 9 22.2
2020-Aug-09 01:30 225 9 gusting 9 22.2
2020-Aug-09 01:25 225 8 gusting 10 22.2
2020-Aug-09 01:20 225 8 gusting 9 21.7
2020-Aug-09 01:15 203 8 gusting 9 22.2
2020-Aug-09 01:10 225 8 gusting 8 21.7
2020-Aug-09 01:05 225 9 gusting 9 21.7
2020-Aug-09 01:00 225 7 gusting 8 21.7
2020-Aug-09 00:55 203 8 gusting 8 22.2
2020-Aug-09 00:50 225 7 gusting 8 21.7
2020-Aug-09 00:45 225 7 gusting 8 21.7
2020-Aug-09 00:40 225 8 gusting 8 21.7
2020-Aug-09 00:35 225 7 gusting 8 21.7
2020-Aug-09 00:30 225 8 gusting 8 21.7
2020-Aug-09 00:25 225 8 gusting 8 21.7
2020-Aug-09 00:20 225 8 gusting 8 21.7
2020-Aug-09 00:15 225 7 gusting 8 22.2
2020-Aug-09 00:10 225 7 gusting 8 22.2
2020-Aug-09 00:05 225 7 gusting 8 22.2
2020-Aug-09 00:00 225 7 gusting 8 22.2
2020-Aug-08 23:55 225 8 gusting 8 22.2
2020-Aug-08 23:50 225 8 gusting 8 22.2
2020-Aug-08 23:45 225 8 gusting 8 22.2
2020-Aug-08 23:40 248 8 gusting 9 22.2
2020-Aug-08 23:35 225 8 gusting 8 22.8
2020-Aug-08 23:30 225 6 gusting 9 22.8
2020-Aug-08 23:25 225 8 gusting 8 22.8
2020-Aug-08 23:20 248 8 gusting 8 22.8
2020-Aug-08 23:10 180 9 gusting 10 22.8
2020-Aug-08 23:05 180 8 gusting 9 22.8
2020-Aug-08 23:00 180 8 gusting 8 22.8
2020-Aug-08 22:55 203 9 gusting 11 22.8
2020-Aug-08 22:50 248 7 gusting 9 22.8
2020-Aug-08 22:45 248 6 gusting 9 22.8
2020-Aug-08 22:40 248 8 gusting 8 22.8
2020-Aug-08 22:30 248 6 gusting 8 22.8
2020-Aug-08 22:25 248 6 gusting 7 23.3
2020-Aug-08 22:20 270 7 gusting 7 23.3
2020-Aug-08 22:15 270 7 gusting 7 23.3
2020-Aug-08 22:10 248 6 gusting 7 23.3
2020-Aug-08 22:05 270 7 gusting 7 23.3
2020-Aug-08 22:00 248 6 gusting 8 23.3
2020-Aug-08 21:55 248 8 gusting 8 23.3
2020-Aug-08 21:50 225 7 gusting 8 23.3
2020-Aug-08 21:45 248 8 gusting 9 23.3
2020-Aug-08 21:40 248 7 gusting 9 23.3
2020-Aug-08 21:35 248 8 gusting 8 23.9
2020-Aug-08 21:30 225 8 gusting 9 23.9
2020-Aug-08 21:25 248 8 gusting 8 23.9
2020-Aug-08 21:20 248 8 gusting 9 23.9
2020-Aug-08 21:15 248 8 gusting 10 23.9
2020-Aug-08 21:10 270 9 gusting 9 23.9
2020-Aug-08 21:05 248 8 gusting 8 23.9
2020-Aug-08 21:00 248 8 gusting 9 23.9
2020-Aug-08 20:55 248 9 gusting 10 23.9
2020-Aug-08 20:50 248 9 gusting 9 24.4
2020-Aug-08 20:45 248 8 gusting 8 24.4
2020-Aug-08 20:40 248 7 gusting 8 25.0
2020-Aug-08 20:35 248 7 gusting 7 25.0
2020-Aug-08 20:30 225 6 gusting 6 25.0
2020-Aug-08 20:25 203 6 gusting 6 25.0
2020-Aug-08 20:20 203 6 gusting 6 25.0
2020-Aug-08 20:15 203 6 gusting 6 25.0
2020-Aug-08 20:10 203 5 gusting 6 25.0
2020-Aug-08 20:05 203 6 gusting 6 25.0
2020-Aug-08 20:00 203 5 gusting 5 24.4
2020-Aug-08 19:55 225 5 gusting 5 25.0
2020-Aug-08 19:50 203 4 gusting 5 24.4
2020-Aug-08 19:45 203 4 gusting 5 24.4
2020-Aug-08 19:40 203 6 gusting 6 24.4
2020-Aug-08 19:35 203 4 gusting 6 24.4
2020-Aug-08 19:30 203 5 gusting 5 24.4
2020-Aug-08 19:25 203 4 gusting 4 24.4
2020-Aug-08 19:20 203 4 gusting 5 24.4
2020-Aug-08 19:15 203 5 gusting 5 24.4
2020-Aug-08 19:10 203 4 gusting 6 24.4
2020-Aug-08 19:05 203 6 gusting 6 24.4
2020-Aug-08 19:00 203 5 gusting 6 24.4